Picton, New Zealand
Current Conditions -  °F | °C
As of 4:00 PM on Saturday 25 Oct 2014 (Local Time) from NZWN Reporting Station
Clear Clear  
Wind Chill: 57°   Ceiling: Unl
Heat Index: 57°   Visibility: 6mi
Dew Point: 45°   Wind: 17mph
Humidity: 63%   Direction: 350°N
Pressure: 30.12"   Gusts: 29mph
Location:  41.3°S, 174.01°E
Report Text: NZWN 250400Z AUTO 35015G25KT 9999 NCD 14/07 Q1020 NOSIG
Loading
Personal Weather Stations






























Interactive Weather Map
Tropical Storm Tracking
New forecast layout! Learn more

10-Day Weather Forecast

Advertisements
Track Severe Weather on mobile